Rockford, IL (61114)

6:26 PM CDT on August 28, 2014 (GMT -0500)
KILROCKF11 | Change Station
CLOSE
Current Station
Personal Weather Station
Location: Rockford, IL
Elevation: 879 ft
Nearby Weather Stations

Elev 879 ft 42.29 °N, 89.01 °W | Updated 11 minutes ago

Overcast
Overcast
66.6 °F
Feels Like 66.6 °F
N
2.0
Wind Variable Wind from ESE
Gusts 5.0 mph

Today
High -- | Low -- °F
--% Chance of Precip.
Yesterday
High -- | Low -- °F
Precip. -- in
6:17 AM 7:36 PM
Waxing Crescent, 10% visible
Pressure 30.05 in
Visibility 10.0 miles
Clouds Few 10000 ft
Overcast 13000 ft
Dew Point 59 °F
Humidity 77%
Rainfall 0.00 in
Snow Depth Not available.
UV 0 out of 12
Pollen 7.70 out of 12
Ozone Good
PM2.5 Good
Flu Activity Not available.
METAR KRFD 282254Z 10008KT 10SM -RA FEW100 OVC130 21/16 A3005 RMK AO2 SLP174 P0000 T02060156

More Conditions Fewer Conditions

Pressure 30.05 in
Visibility 10.0 miles
Clouds Few 10000 ft
Overcast 13000 ft
Dew Point 59 °F
Humidity 77%
Rainfall 0.00 in
Snow Depth Not available.
UV 0 out of 12
Pollen 7.70 out of 12
Ozone Good
PM2.5 Good
Flu Activity Not available.
METAR KRFD 282254Z 10008KT 10SM -RA FEW100 OVC130 21/16 A3005 RMK AO2 SLP174 P0000 T02060156

More Conditions Fewer Conditions

10-Day Weather Forecast

Almanac

Astronomy

Aug. 28, 2014 Rise Set
Actual Time 6:17 AM CDT 7:36 PM CDT
Civil Twilight 5:47 AM CDT 8:05 PM CDT
Nautical Twilight 5:12 AM CDT 8:40 PM CDT
Astronomical Twilight 4:35 AM CDT 9:17 PM CDT
Moon 9:13 AM CDT 8:56 PM CDT
Length of Visible Light 14h 17m
Length of Day
13h 19m
Tomorrow will be 2m 44s shorter.
Waxing Crescent, 10% of the Moon is Illuminated
Today
Waxing Crescent
Sep 2
First Quarter
Sep 8
Full
Sep 15
Last Quarter
Sep 24
New

Today's Extremes

State Highs State Lows

Community

WunderPhotos

Upload Photos

1,748,104 photos uploaded!

Nearby

Air Quality

  Air Quality AQ Index Pollutant
Yesterday Good
OZONE
Yesterday Good
PM2.5
Current Good
OZONE
Current Good
PM2.5
Thursday Good
PM2.5
Friday Good
PM2.5
Saturday Good
PM2.5
Sunday Moderate
PM2.5

Snow Depth

Station Depth Elevation
No new snow has been reported.

Earthquake Activity

City Distance Mag. Time & Date
No recent earthquake activity has been reported nearby.
Minimum magnitude displayed is 2.5.

Coastal Water Temperatures

Place Temperature
No Stations Reporting

Nearby Weather Stations